Terminal Aerodrome Forecast
Issued by NWS Mt. Holly, NJ

Home | Current Version | Previous Version | Text Only | Print | Product List | Glossary On
Versions: 1 2 3 4 5 6 7 8 9 10 11 12 13 14 15 16 17 18 19 20 21 22
000
FTUS41 KPHI 312300
TAFRDG
TAF
KRDG 312323Z 0100/0124 30007KT P6SM SKC
     FM010300 29003KT P6SM SCT250
     FM011200 28002KT P6SM SCT050 BKN100
     FM011600 25005KT P6SM SCT015 OVC030
      TEMPO 0118/0122 6SM -SN
     FM012200 19003KT 2SM -SN BKN015=

USA.gov is the U.S. government's official web portal to all federal, state and local government web resources and services.